createdAt,value
2022-10-08T00:01:12.284Z,100537.09
2022-10-08T00:03:45.643Z,100522.91
2022-10-08T00:06:21.113Z,100521.19
2022-10-08T00:08:57.420Z,100513.78
2022-10-08T00:11:32.800Z,100520.06
2022-10-08T00:14:02.023Z,100510.09
2022-10-08T00:16:34.541Z,100507.41
2022-10-08T00:19:08.082Z,100500.72
2022-10-08T00:21:37.833Z,100496.16
2022-10-08T00:24:06.516Z,100501.56
2022-10-08T00:26:38.690Z,100498.84
2022-10-08T00:29:11.958Z,100493.59
2022-10-08T00:31:41.616Z,100495.31
2022-10-08T00:34:10.387Z,100481.97
2022-10-08T00:36:39.173Z,100479.41
2022-10-08T00:39:17.696Z,100485.13
2022-10-08T00:41:47.586Z,100478.31
2022-10-08T00:45:02.067Z,100482.00
2022-10-08T00:47:48.988Z,100468.22
2022-10-08T00:50:23.638Z,100471.22
2022-10-08T00:53:01.345Z,100458.75
2022-10-08T00:55:28.718Z,100462.44
2022-10-08T00:58:02.073Z,100459.72
2022-10-08T01:00:30.337Z,100451.94
2022-10-08T01:02:57.071Z,100451.78
2022-10-08T01:05:38.774Z,100451.63
2022-10-08T01:08:20.396Z,100440.84
2022-10-08T01:11:01.842Z,100447.94
2022-10-08T01:13:41.864Z,100442.53
2022-10-08T01:16:33.303Z,100440.84
2022-10-08T01:19:05.566Z,100439.13
2022-10-08T01:22:00.714Z,100431.75
2022-10-08T01:25:08.752Z,100430.88
2022-10-08T01:27:45.685Z,100430.34
2022-10-08T01:30:18.041Z,100417.16
2022-10-08T01:32:54.591Z,100423.28
2022-10-08T01:35:28.857Z,100421.56
2022-10-08T01:37:59.897Z,100424.66
2022-10-08T01:40:32.714Z,100418.94
2022-10-08T01:43:01.416Z,100413.53
2022-10-08T01:45:33.268Z,100417.50
2022-10-08T01:48:03.279Z,100407.63
2022-10-08T01:50:59.964Z,100411.72
2022-10-08T01:53:33.447Z,100398.59
2022-10-08T01:56:04.018Z,100404.25
2022-10-08T01:58:55.753Z,100405.94
2022-10-08T02:01:45.803Z,100408.16
2022-10-08T02:04:30.944Z,100407.84
2022-10-08T02:06:59.750Z,100406.41
2022-10-08T02:09:30.509Z,100411.81
2022-10-08T02:11:57.673Z,100412.94
2022-10-08T02:14:26.607Z,100402.16
2022-10-08T02:17:27.942Z,100402.53
2022-10-08T02:20:24.260Z,100392.44
2022-10-08T02:23:00.760Z,100390.41
2022-10-08T02:25:59.659Z,100388.72
2022-10-08T02:28:44.467Z,100392.75
2022-10-08T02:31:38.090Z,100395.13
2022-10-08T02:34:12.715Z,100387.50
2022-10-08T02:36:43.761Z,100398.16
2022-10-08T02:39:12.970Z,100382.94
2022-10-08T02:41:50.660Z,100394.03
2022-10-08T02:44:23.691Z,100387.13
2022-10-08T02:46:55.905Z,100393.38
2022-10-08T02:49:28.866Z,100390.97
2022-10-08T02:51:58.786Z,100384.88
2022-10-08T02:54:25.762Z,100385.88
2022-10-08T02:57:11.706Z,100382.50
2022-10-08T02:59:38.554Z,100382.50
2022-10-08T03:02:05.990Z,100382.66
2022-10-08T03:04:38.932Z,100385.50
2022-10-08T03:07:06.748Z,100375.03
2022-10-08T03:09:49.058Z,100374.47
2022-10-08T03:12:15.813Z,100388.09
2022-10-08T03:14:47.855Z,100381.34
2022-10-08T03:17:19.951Z,100388.72
2022-10-08T03:19:46.620Z,100378.22
2022-10-08T03:22:13.310Z,100387.66
2022-10-08T03:24:39.880Z,100385.94
2022-10-08T03:27:06.786Z,100385.94
2022-10-08T03:29:33.403Z,100387.09
2022-10-08T03:32:00.054Z,100383.19
2022-10-08T03:34:27.046Z,100380.78
2022-10-08T03:36:53.729Z,100387.16
2022-10-08T03:39:20.395Z,100386.34
2022-10-08T03:41:47.017Z,100380.78
2022-10-08T03:44:13.612Z,100380.84
2022-10-08T03:46:40.254Z,100381.97
2022-10-08T03:49:07.212Z,100381.25
2022-10-08T03:51:33.854Z,100374.16
2022-10-08T03:54:00.500Z,100372.31
2022-10-08T03:56:27.112Z,100369.44
2022-10-08T03:58:59.008Z,100370.84
2022-10-08T04:01:26.338Z,100369.16
2022-10-08T04:03:53.030Z,100374.84
2022-10-08T04:06:20.213Z,100373.44
2022-10-08T04:08:46.857Z,100369.75
2022-10-08T04:11:16.424Z,100372.84
2022-10-08T04:13:43.166Z,100370.84
2022-10-08T04:16:15.479Z,100370.13
2022-10-08T04:18:42.853Z,100371.16
2022-10-08T04:21:12.062Z,100374.69
2022-10-08T04:23:40.218Z,100367.75
2022-10-08T04:26:08.504Z,100364.38
2022-10-08T04:28:40.150Z,100362.66
2022-10-08T04:31:10.192Z,100366.06
2022-10-08T04:33:37.398Z,100365.50
2022-10-08T04:36:08.650Z,100370.06
2022-10-08T04:38:35.491Z,100370.38
2022-10-08T04:41:04.282Z,100359.28
2022-10-08T04:43:31.051Z,100362.97
2022-10-08T04:45:57.689Z,100354.19
2022-10-08T04:48:24.374Z,100354.72
2022-10-08T04:51:04.106Z,100358.59
2022-10-08T04:53:33.520Z,100365.97
2022-10-08T04:56:09.306Z,100367.97
2022-10-08T04:58:35.920Z,100369.84
2022-10-08T05:01:05.301Z,100361.59
2022-10-08T05:03:35.820Z,100359.56
2022-10-08T05:06:02.405Z,100360.25
2022-10-08T05:08:29.399Z,100366.06
2022-10-08T05:10:55.993Z,100356.63
2022-10-08T05:13:22.622Z,100364.44
2022-10-08T05:15:49.367Z,100358.72
2022-10-08T05:18:16.283Z,100368.22
2022-10-08T05:20:42.876Z,100362.19
2022-10-08T05:23:24.689Z,100370.69
2022-10-08T05:25:51.269Z,100365.22
2022-10-08T05:28:17.907Z,100357.47
2022-10-08T05:30:44.603Z,100365.78
2022-10-08T05:33:11.265Z,100358.44
2022-10-08T05:35:38.826Z,100368.63
2022-10-08T05:38:05.493Z,100375.06
2022-10-08T05:40:32.154Z,100373.28
2022-10-08T05:42:58.947Z,100379.59
2022-10-08T05:45:25.667Z,100383.34
2022-10-08T05:47:52.357Z,100374.97
2022-10-08T05:50:18.971Z,100384.69
2022-10-08T05:52:47.720Z,100389.28
2022-10-08T05:55:14.652Z,100377.16
2022-10-08T05:57:41.256Z,100378.22
2022-10-08T06:00:09.204Z,100375.22
2022-10-08T06:02:35.861Z,100385.06
2022-10-08T06:05:02.639Z,100386.94
2022-10-08T06:07:29.274Z,100387.50
2022-10-08T06:09:55.857Z,100392.59
2022-10-08T06:12:22.449Z,100390.94
2022-10-08T06:14:49.057Z,100385.84
2022-10-08T06:17:15.669Z,100391.66
2022-10-08T06:19:42.271Z,100390.63
2022-10-08T06:22:27.294Z,100397.41
2022-10-08T06:24:53.989Z,100385.03
2022-10-08T06:27:20.654Z,100388.06
2022-10-08T06:29:47.379Z,100395.16
2022-10-08T06:32:13.979Z,100391.03
2022-10-08T06:34:42.090Z,100388.84
2022-10-08T06:37:09.718Z,100395.41
2022-10-08T06:39:36.295Z,100402.63
2022-10-08T06:42:02.905Z,100401.97
2022-10-08T06:44:29.533Z,100397.50
2022-10-08T06:46:56.206Z,100398.50
2022-10-08T06:49:26.695Z,100394.09
2022-10-08T06:51:53.367Z,100399.41
2022-10-08T06:54:20.023Z,100399.50
2022-10-08T06:56:46.649Z,100395.66
2022-10-08T06:59:13.237Z,100408.09
2022-10-08T07:01:39.929Z,100391.66
2022-10-08T07:04:07.330Z,100398.56
2022-10-08T07:06:34.529Z,100392.00
2022-10-08T07:09:02.179Z,100395.03
2022-10-08T07:11:30.234Z,100394.78
2022-10-08T07:13:58.814Z,100407.34
2022-10-08T07:16:26.966Z,100397.69
2022-10-08T07:18:59.211Z,100394.88
2022-10-08T07:21:29.017Z,100402.50
2022-10-08T07:23:56.546Z,100399.09
2022-10-08T07:26:29.938Z,100404.25
2022-10-08T07:29:05.820Z,100394.78
2022-10-08T07:31:36.174Z,100406.91
2022-10-08T07:34:08.945Z,100405.38
2022-10-08T07:36:36.569Z,100402.16
2022-10-08T07:39:14.852Z,100397.63
2022-10-08T07:41:43.018Z,100393.31
2022-10-08T07:44:19.946Z,100370.34
2022-10-08T07:46:50.175Z,100375.56
2022-10-08T07:49:18.668Z,100388.25
2022-10-08T07:51:45.639Z,100389.44
2022-10-08T07:54:16.144Z,100388.59
2022-10-08T07:56:42.752Z,100395.19
2022-10-08T07:59:09.666Z,100393.19
2022-10-08T08:01:36.384Z,100393.56
2022-10-08T08:04:08.122Z,100394.69
2022-10-08T08:06:39.905Z,100386.50
2022-10-08T08:09:06.992Z,100386.09
2022-10-08T08:11:33.668Z,100384.06
2022-10-08T08:14:00.352Z,100399.47
2022-10-08T08:16:29.480Z,100396.41
2022-10-08T08:18:59.108Z,100384.22
2022-10-08T08:21:31.173Z,100388.47
2022-10-08T08:24:02.782Z,100406.09
2022-10-08T08:26:33.015Z,100390.19
2022-10-08T08:29:02.710Z,100394.81
2022-10-08T08:31:32.242Z,100393.53
2022-10-08T08:34:10.823Z,100397.78
2022-10-08T08:36:46.081Z,100390.28
2022-10-08T08:39:29.836Z,100391.97
2022-10-08T08:42:21.268Z,100394.06
2022-10-08T08:44:59.498Z,100401.66
2022-10-08T08:47:48.988Z,100380.16
2022-10-08T08:50:29.030Z,100387.66
2022-10-08T08:52:56.224Z,100384.31
2022-10-08T08:55:40.545Z,100384.25
2022-10-08T08:58:36.662Z,100381.53
2022-10-08T09:01:33.252Z,100384.06
2022-10-08T09:04:10.780Z,100366.94
2022-10-08T09:06:40.287Z,100380.34
2022-10-08T09:09:40.617Z,100379.84
2022-10-08T09:12:21.156Z,100376.66
2022-10-08T09:14:54.726Z,100370.59
2022-10-08T09:17:39.319Z,100377.28
2022-10-08T09:20:07.231Z,100381.19
2022-10-08T09:22:39.400Z,100365.19
2022-10-08T09:25:08.313Z,100378.25
2022-10-08T09:27:45.109Z,100362.06
2022-10-08T09:30:27.262Z,100371.44
2022-10-08T09:32:56.627Z,100368.66
2022-10-08T09:35:23.778Z,100367.97
2022-10-08T09:38:06.110Z,100373.34
2022-10-08T09:40:33.273Z,100364.38
2022-10-08T09:43:16.723Z,100357.53
2022-10-08T09:45:48.539Z,100348.91
2022-10-08T09:48:30.608Z,100357.06
2022-10-08T09:51:18.165Z,100352.34
2022-10-08T09:53:51.439Z,100351.84
2022-10-08T09:56:28.226Z,100345.47
2022-10-08T09:59:19.433Z,100340.25
2022-10-08T10:01:47.617Z,100343.34
2022-10-08T10:04:25.432Z,100349.88
2022-10-08T10:06:55.683Z,100347.34
2022-10-08T10:09:45.950Z,100346.53
2022-10-08T10:12:27.246Z,100343.88
2022-10-08T10:15:02.776Z,100336.38
2022-10-08T10:17:50.722Z,100339.59
2022-10-08T10:20:20.010Z,100339.88
2022-10-08T10:23:01.762Z,100334.25
2022-10-08T10:25:49.347Z,100330.84
2022-10-08T10:28:24.989Z,100321.38
2022-10-08T10:31:03.756Z,100325.19
2022-10-08T10:33:35.108Z,100320.63
2022-10-08T10:36:07.510Z,100306.16
2022-10-08T10:39:24.082Z,100310.06
2022-10-08T10:42:02.725Z,100303.84
2022-10-08T10:44:45.937Z,100297.13
2022-10-08T10:47:13.259Z,100301.59
2022-10-08T10:49:42.565Z,100291.47
2022-10-08T10:52:18.439Z,100293.16
2022-10-08T10:55:02.688Z,100288.59
2022-10-08T10:57:38.387Z,100280.72
2022-10-08T11:00:05.144Z,100272.63
2022-10-08T11:02:59.037Z,100282.06
2022-10-08T11:05:28.220Z,100270.31
2022-10-08T11:08:16.856Z,100270.38
2022-10-08T11:11:08.901Z,100268.78
2022-10-08T11:13:56.157Z,100270.84
2022-10-08T11:16:48.187Z,100266.41
2022-10-08T11:19:39.786Z,100259.22
2022-10-08T11:22:11.344Z,100263.13
2022-10-08T11:24:51.268Z,100255.59
2022-10-08T11:28:02.717Z,100247.31
2022-10-08T11:30:59.954Z,100243.97
2022-10-08T11:33:27.690Z,100246.28
2022-10-08T11:36:17.456Z,100238.44
2022-10-08T11:38:53.713Z,100237.44
2022-10-08T11:41:34.556Z,100226.66
2022-10-08T11:44:04.040Z,100219.59
2022-10-08T11:46:33.094Z,100220.31
2022-10-08T11:49:11.866Z,100217.84
2022-10-08T11:51:40.700Z,100208.56
2022-10-08T11:54:34.910Z,100214.00
2022-10-08T11:57:23.096Z,100203.69
2022-10-08T12:00:03.017Z,100199.34
2022-10-08T12:02:38.642Z,100195.84
2022-10-08T12:05:23.406Z,100191.03
2022-10-08T12:07:54.307Z,100191.63
2022-10-08T12:10:20.818Z,100191.09
2022-10-08T12:12:53.814Z,100191.22
2022-10-08T12:15:23.412Z,100183.94
2022-10-08T12:18:01.494Z,100181.09
2022-10-08T12:20:33.542Z,100177.97
2022-10-08T12:23:10.034Z,100183.63
2022-10-08T12:25:38.383Z,100181.44
2022-10-08T12:28:20.240Z,100176.47
2022-10-08T12:30:49.541Z,100177.84
2022-10-08T12:33:17.271Z,100173.13
2022-10-08T12:35:55.939Z,100164.13
2022-10-08T12:39:02.198Z,100166.78
2022-10-08T12:41:58.767Z,100161.88
2022-10-08T12:44:28.071Z,100163.66
2022-10-08T12:47:00.373Z,100155.84
2022-10-08T12:49:43.696Z,100165.75
2022-10-08T12:52:17.878Z,100158.34
2022-10-08T12:54:53.990Z,100156.63
2022-10-08T12:57:39.419Z,100153.22
2022-10-08T13:00:22.071Z,100153.25
2022-10-08T13:03:12.860Z,100157.75
2022-10-08T13:05:43.401Z,100150.97
2022-10-08T13:08:39.920Z,100154.38
2022-10-08T13:11:15.261Z,100145.59
2022-10-08T13:13:44.105Z,100148.66
2022-10-08T13:16:26.059Z,100145.03
2022-10-08T13:18:59.886Z,100140.31
2022-10-08T13:21:32.288Z,100147.25
2022-10-08T13:24:30.429Z,100146.13
2022-10-08T13:26:57.133Z,100145.06
2022-10-08T13:29:23.723Z,100146.56
2022-10-08T13:32:00.985Z,100142.19
2022-10-08T13:34:41.804Z,100148.41
2022-10-08T13:37:33.245Z,100146.94
2022-10-08T13:43:59.536Z,100150.88
2022-10-08T13:46:26.208Z,100148.84
2022-10-08T13:48:52.913Z,100142.28
2022-10-08T13:51:19.638Z,100135.56
2022-10-08T13:54:46.421Z,100138.38
2022-10-08T13:57:14.144Z,100135.88
2022-10-08T13:59:40.709Z,100126.72
2022-10-08T14:02:08.395Z,100131.09
2022-10-08T14:04:35.007Z,100125.59
2022-10-08T14:07:02.519Z,100127.53
2022-10-08T14:13:20.674Z,100127.19
2022-10-08T14:15:47.261Z,100120.59
2022-10-08T14:18:14.269Z,100123.41
2022-10-08T14:20:40.998Z,100115.03
2022-10-08T14:30:50.276Z,100113.34
2022-10-08T14:33:17.327Z,100116.69
2022-10-08T14:35:46.769Z,100105.47
2022-10-08T14:42:04.949Z,100117.56
2022-10-08T14:44:32.070Z,100108.44
2022-10-08T14:46:58.638Z,100110.34
2022-10-08T14:49:25.668Z,100118.66
2022-10-08T14:51:52.725Z,100116.72
2022-10-08T14:54:20.103Z,100125.56
2022-10-08T14:56:46.999Z,100116.28
2022-10-08T14:59:14.764Z,100115.09
2022-10-08T15:01:41.432Z,100117.09
2022-10-08T15:04:09.288Z,100118.78
2022-10-08T15:06:42.179Z,100122.25
2022-10-08T15:20:44.750Z,100126.56
2022-10-08T15:38:03.916Z,100131.84
2022-10-08T15:52:40.949Z,100144.66
2022-10-08T15:56:10.000Z,100148.44
2022-10-08T15:58:50.485Z,100148.72
2022-10-08T16:01:20.007Z,100150.31
2022-10-08T16:03:48.965Z,100146.53
2022-10-08T16:06:18.659Z,100158.75
2022-10-08T16:08:45.955Z,100151.50
2022-10-08T16:11:23.048Z,100160.75
2022-10-08T16:14:11.884Z,100159.13
2022-10-08T16:16:39.411Z,100161.28
2022-10-08T16:19:10.164Z,100158.75
2022-10-08T16:21:37.454Z,100165.50
2022-10-08T16:24:05.178Z,100164.03
2022-10-08T16:26:33.742Z,100163.25
2022-10-08T16:29:04.392Z,100160.38
2022-10-08T16:31:32.866Z,100157.97
2022-10-08T16:34:03.145Z,100154.81
2022-10-08T16:36:31.651Z,100160.97
2022-10-08T16:38:59.520Z,100173.63
2022-10-08T16:41:28.809Z,100159.31
2022-10-08T16:43:58.419Z,100168.16
2022-10-08T16:46:29.262Z,100173.97
2022-10-08T16:48:57.076Z,100175.63
2022-10-08T16:51:26.538Z,100164.69
2022-10-08T16:53:58.911Z,100167.97
2022-10-08T16:56:29.611Z,100173.38
2022-10-08T16:58:58.514Z,100166.19
2022-10-08T17:01:26.856Z,100175.31
2022-10-08T17:03:53.942Z,100173.38
2022-10-08T17:06:23.002Z,100176.75
2022-10-08T17:08:55.647Z,100179.47
2022-10-08T17:11:23.389Z,100170.47
2022-10-08T17:14:00.105Z,100173.22
2022-10-08T17:16:29.797Z,100169.09
2022-10-08T17:18:59.468Z,100177.25
2022-10-08T17:21:29.687Z,100171.16
2022-10-08T17:23:59.737Z,100179.34
2022-10-08T17:26:29.375Z,100173.63
2022-10-08T17:28:56.173Z,100181.56
2022-10-08T17:31:29.720Z,100188.72
2022-10-08T17:33:56.317Z,100180.28
2022-10-08T17:36:27.808Z,100186.13
2022-10-08T17:38:57.013Z,100193.25
2022-10-08T17:41:28.105Z,100194.47
2022-10-08T17:43:55.914Z,100193.19
2022-10-08T17:46:27.817Z,100190.22
2022-10-08T17:48:54.456Z,100199.84
2022-10-08T17:51:25.793Z,100189.75
2022-10-08T17:53:55.550Z,100195.06
2022-10-08T17:56:25.299Z,100192.91
2022-10-08T17:58:52.503Z,100195.75
2022-10-08T18:01:24.845Z,100204.06
2022-10-08T18:03:56.317Z,100203.16
2022-10-08T18:06:24.686Z,100204.31
2022-10-08T18:08:55.752Z,100211.53
2022-10-08T18:11:23.912Z,100211.28
2022-10-08T18:13:50.822Z,100205.31
2022-10-08T18:16:19.405Z,100198.94
2022-10-08T18:18:46.595Z,100198.69
2022-10-08T18:21:16.061Z,100198.44
2022-10-08T18:23:43.632Z,100200.88
2022-10-08T18:26:16.565Z,100212.16
2022-10-08T18:28:43.824Z,100207.47
2022-10-08T18:31:12.728Z,100209.91
2022-10-08T18:33:41.207Z,100209.81
2022-10-08T18:36:12.545Z,100210.00
2022-10-08T18:38:41.189Z,100203.44
2022-10-08T18:41:17.531Z,100213.50
2022-10-08T18:43:45.305Z,100210.13
2022-10-08T18:46:14.686Z,100208.81
2022-10-08T18:48:41.610Z,100208.34
2022-10-08T18:51:17.774Z,100207.47
2022-10-08T18:53:46.377Z,100217.91
2022-10-08T18:56:20.094Z,100222.50
2022-10-08T18:58:47.416Z,100220.44
2022-10-08T19:01:29.857Z,100227.94
2022-10-08T19:03:58.784Z,100226.63
2022-10-08T19:06:29.003Z,100226.63
2022-10-08T19:08:57.042Z,100219.84
2022-10-08T19:11:29.581Z,100227.34
2022-10-08T19:13:56.156Z,100221.91
2022-10-08T19:16:23.719Z,100229.41
2022-10-08T19:19:04.883Z,100232.78
2022-10-08T19:21:34.812Z,100234.09
2022-10-08T19:24:02.128Z,100236.66
2022-10-08T19:26:33.488Z,100239.38
2022-10-08T19:29:00.519Z,100240.75
2022-10-08T19:31:31.606Z,100241.97
2022-10-08T19:34:03.509Z,100243.19
2022-10-08T19:36:33.641Z,100242.34
2022-10-08T19:39:02.735Z,100232.69
2022-10-08T19:41:30.149Z,100235.13
2022-10-08T19:44:00.631Z,100236.34
2022-10-08T19:46:28.290Z,100231.63
2022-10-08T19:48:58.284Z,100228.28
2022-10-08T19:51:26.495Z,100233.72
2022-10-08T19:53:54.387Z,100241.19
2022-10-08T19:56:22.329Z,100239.88
2022-10-08T19:58:55.655Z,100260.66
2022-10-08T20:01:28.142Z,100254.75
2022-10-08T20:03:57.711Z,100256.31
2022-10-08T20:06:26.531Z,100251.25
2022-10-08T20:08:55.992Z,100249.09
2022-10-08T20:11:22.819Z,100255.75
2022-10-08T20:13:51.969Z,100254.41
2022-10-08T20:16:40.552Z,100256.47
2022-10-08T20:19:14.929Z,100261.22
2022-10-08T20:21:41.517Z,100259.25
2022-10-08T20:24:08.985Z,100257.94
2022-10-08T20:26:37.224Z,100264.09
2022-10-08T20:29:08.616Z,100270.59
2022-10-08T20:31:38.177Z,100270.28
2022-10-08T20:34:20.933Z,100268.31
2022-10-08T20:36:48.404Z,100268.81
2022-10-08T20:39:17.974Z,100271.53
2022-10-08T20:41:44.728Z,100273.06
2022-10-08T20:44:12.131Z,100275.13
2022-10-08T20:46:39.291Z,100276.50
2022-10-08T20:49:08.556Z,100270.59
2022-10-08T20:51:35.204Z,100270.09
2022-10-08T20:54:07.495Z,100276.56
2022-10-08T20:56:39.898Z,100271.13
2022-10-08T20:59:09.629Z,100266.06
2022-10-08T21:01:38.533Z,100267.72
2022-10-08T21:04:07.522Z,100269.59
2022-10-08T21:06:43.280Z,100271.47
2022-10-08T21:09:11.784Z,100270.63
2022-10-08T21:11:38.884Z,100268.09
2022-10-08T21:14:07.998Z,100266.41
2022-10-08T21:16:38.528Z,100273.88
2022-10-08T21:19:19.420Z,100272.19
2022-10-08T21:21:46.121Z,100277.97
2022-10-08T21:24:13.744Z,100278.31
2022-10-08T21:26:41.691Z,100274.25
2022-10-08T21:29:12.167Z,100273.97
2022-10-08T21:31:40.226Z,100277.19
2022-10-08T21:34:07.835Z,100271.63
2022-10-08T21:36:37.119Z,100272.00
2022-10-08T21:39:05.607Z,100267.25
2022-10-08T21:41:34.244Z,100270.66
2022-10-08T21:44:03.367Z,100277.09
2022-10-08T21:46:33.172Z,100277.78
2022-10-08T21:49:03.197Z,100276.09
2022-10-08T21:51:30.904Z,100271.38
2022-10-08T21:53:59.946Z,100274.59
2022-10-08T21:56:29.641Z,100274.94
2022-10-08T21:58:59.418Z,100276.50
2022-10-08T22:01:38.372Z,100282.94
2022-10-08T22:04:11.343Z,100281.91
2022-10-08T22:06:43.568Z,100276.47
2022-10-08T22:09:14.163Z,100274.47
2022-10-08T22:11:41.571Z,100274.97
2022-10-08T22:14:08.733Z,100272.44
2022-10-08T22:16:35.748Z,100270.75
2022-10-08T22:19:02.386Z,100271.94
2022-10-08T22:21:29.103Z,100273.09
2022-10-08T22:23:55.971Z,100275.31
2022-10-08T22:26:27.317Z,100271.78
2022-10-08T22:28:53.981Z,100272.94
2022-10-08T22:31:21.163Z,100272.94
2022-10-08T22:33:48.683Z,100268.38
2022-10-08T22:36:23.877Z,100274.13
2022-10-08T22:38:51.282Z,100277.16
2022-10-08T22:41:24.352Z,100278.22
2022-10-08T22:43:51.971Z,100276.50
2022-10-08T22:46:26.740Z,100277.34
2022-10-08T22:48:59.216Z,100281.91
2022-10-08T22:51:26.165Z,100282.25
2022-10-08T22:53:53.139Z,100282.59
2022-10-08T22:56:25.479Z,100284.31
2022-10-08T22:58:52.297Z,100286.34
2022-10-08T23:01:22.045Z,100284.31
2022-10-08T23:03:49.906Z,100293.75
2022-10-08T23:06:19.833Z,100299.84
2022-10-08T23:08:48.921Z,100301.03
2022-10-08T23:11:16.428Z,100296.47
2022-10-08T23:13:45.882Z,100296.47
2022-10-08T23:16:14.748Z,100293.09
2022-10-08T23:18:43.512Z,100290.72
2022-10-08T23:21:16.661Z,100293.44
2022-10-08T23:23:47.391Z,100304.25
2022-10-08T23:26:15.146Z,100309.66
2022-10-08T23:28:42.787Z,100312.53
2022-10-08T23:31:14.841Z,100310.00
2022-10-08T23:33:44.549Z,100310.66
2022-10-08T23:36:14.300Z,100304.38
2022-10-08T23:38:40.944Z,100308.97
2022-10-08T23:41:09.561Z,100314.38
2022-10-08T23:43:38.164Z,100309.28
2022-10-08T23:46:06.888Z,100316.41
2022-10-08T23:48:34.306Z,100318.09
2022-10-08T23:51:01.472Z,100312.66
2022-10-08T23:53:29.020Z,100316.75
2022-10-08T23:55:55.633Z,100315.03
2022-10-08T23:58:22.219Z,100320.44
